createdAt,value
2023-05-19T00:06:43.937Z,79.6115
2023-05-19T00:09:47.280Z,79.9734
2023-05-19T00:10:48.853Z,80.3503
2023-05-19T00:11:50.668Z,79.8202
2023-05-19T00:12:53.857Z,80.2449
2023-05-19T00:13:52.645Z,80.1455
2023-05-19T00:14:53.837Z,81.3334
2023-05-19T00:15:55.048Z,81.5120
2023-05-19T00:16:56.297Z,80.0364
2023-05-19T00:17:58.302Z,80.4013
2023-05-19T00:18:59.609Z,80.1877
2023-05-19T00:20:01.010Z,79.4145
2023-05-19T00:21:02.224Z,79.7654
2023-05-19T00:28:12.801Z,81.0129
2023-05-19T00:29:14.369Z,80.9490
2023-05-19T00:30:16.230Z,81.1955
2023-05-19T00:32:19.615Z,80.8829
2023-05-19T00:33:20.850Z,80.0380
2023-05-19T00:34:22.341Z,79.3817
2023-05-19T00:36:24.844Z,80.4561
2023-05-19T00:37:26.277Z,81.2671
2023-05-19T00:39:29.468Z,81.6822
2023-05-19T00:40:30.908Z,82.3843
2023-05-19T00:42:33.451Z,81.4789
2023-05-19T00:43:34.673Z,81.1063
2023-05-19T00:44:36.443Z,81.1156
2023-05-19T00:45:37.855Z,81.1857
2023-05-19T00:46:40.660Z,81.9895
2023-05-19T00:47:42.737Z,82.6794
2023-05-19T00:48:42.767Z,81.2753
2023-05-19T00:49:44.691Z,82.3488
2023-05-19T00:50:46.232Z,82.2365
2023-05-19T00:51:48.359Z,82.3234
2023-05-19T00:52:49.631Z,83.4535
2023-05-19T00:53:51.524Z,81.7884
2023-05-19T00:54:53.501Z,82.0215
2023-05-19T00:56:55.854Z,80.7808
2023-05-19T00:57:57.130Z,81.1159
2023-05-19T00:58:58.635Z,81.1129
2023-05-19T01:00:00.515Z,80.5471
2023-05-19T01:01:01.760Z,79.9293
2023-05-19T01:02:03.010Z,80.3694
2023-05-19T01:03:04.306Z,80.0641
2023-05-19T01:04:06.321Z,80.8482
2023-05-19T01:05:08.575Z,81.6831
2023-05-19T01:07:11.899Z,82.4634
2023-05-19T01:08:14.257Z,82.1472
2023-05-19T01:09:15.611Z,81.9490
2023-05-19T01:10:17.054Z,81.6781
2023-05-19T01:11:18.993Z,81.3535
2023-05-19T01:12:21.127Z,82.6094
2023-05-19T01:13:22.527Z,82.8421
2023-05-19T01:14:24.766Z,83.4498
2023-05-19T01:15:26.662Z,83.5905
2023-05-19T01:16:28.841Z,82.5057
2023-05-19T01:17:30.440Z,83.4109
2023-05-19T01:19:33.657Z,83.0141
2023-05-19T01:20:37.287Z,83.2264
2023-05-19T01:26:44.877Z,83.6774
2023-05-19T01:27:47.389Z,85.2810
2023-05-19T01:28:48.798Z,85.7264
2023-05-19T01:30:52.439Z,86.7182
2023-05-19T01:31:54.579Z,85.4059
2023-05-19T01:32:57.112Z,84.2081
2023-05-19T01:33:58.345Z,83.3539
2023-05-19T01:35:00.281Z,83.2147
2023-05-19T01:36:02.204Z,84.7565
2023-05-19T01:37:03.474Z,85.0931
2023-05-19T01:38:05.619Z,84.4404
2023-05-19T01:39:06.855Z,84.6668
2023-05-19T01:40:08.075Z,84.1644
2023-05-19T01:41:09.302Z,84.9272
2023-05-19T01:42:10.612Z,83.7966
2023-05-19T01:43:11.953Z,83.7563
2023-05-19T01:46:15.559Z,83.3776
2023-05-19T01:47:16.812Z,83.9105
2023-05-19T01:48:18.064Z,83.8217
2023-05-19T01:49:19.478Z,85.4036
2023-05-19T01:51:22.362Z,86.2058
2023-05-19T01:52:24.730Z,84.1274
2023-05-19T01:54:27.189Z,83.3445
2023-05-19T01:55:28.598Z,83.7109
2023-05-19T01:56:30.004Z,84.5608
2023-05-19T01:57:31.254Z,84.1253
2023-05-19T01:58:32.671Z,83.6534
2023-05-19T01:59:34.103Z,83.5022
2023-05-19T02:00:36.562Z,84.5118
2023-05-19T02:01:38.508Z,84.1869
2023-05-19T02:02:39.964Z,83.1611
2023-05-19T02:04:43.168Z,82.8163
2023-05-19T02:05:45.904Z,83.0661
2023-05-19T02:06:47.347Z,83.2262
2023-05-19T02:07:49.534Z,83.2448
2023-05-19T02:08:51.866Z,84.1312
2023-05-19T02:09:53.134Z,83.3213
2023-05-19T02:11:56.866Z,84.1623
2023-05-19T02:12:58.841Z,84.5437
2023-05-19T02:14:00.334Z,85.0109
2023-05-19T02:15:02.313Z,84.9062
2023-05-19T02:16:03.577Z,84.6466
2023-05-19T02:17:05.250Z,84.5817
2023-05-19T02:18:06.704Z,84.2444
2023-05-19T02:19:08.584Z,84.6586
2023-05-19T02:20:10.005Z,85.2158
2023-05-19T02:21:13.203Z,83.7176
2023-05-19T02:22:12.382Z,83.3350
2023-05-19T02:23:14.054Z,83.2908
2023-05-19T02:24:15.456Z,84.1582
2023-05-19T02:25:16.900Z,84.8829
2023-05-19T02:26:18.128Z,84.4724
2023-05-19T02:27:19.564Z,83.9605
2023-05-19T02:28:21.589Z,84.4613
2023-05-19T02:30:24.739Z,86.2544
2023-05-19T02:31:27.605Z,84.4565
2023-05-19T02:32:29.865Z,83.8444
2023-05-19T02:33:31.076Z,83.4123
2023-05-19T02:34:33.121Z,84.0881
2023-05-19T02:35:35.073Z,84.4841
2023-05-19T02:36:36.849Z,83.7049
2023-05-19T02:37:38.163Z,84.4591
2023-05-19T02:38:40.887Z,83.6601
2023-05-19T02:39:42.879Z,83.4021
2023-05-19T02:40:44.189Z,84.6361
2023-05-19T02:41:45.920Z,83.1230
2023-05-19T02:42:47.312Z,82.9611
2023-05-19T02:43:48.554Z,83.3242
2023-05-19T02:44:49.826Z,83.0747
2023-05-19T02:45:51.072Z,83.5231
2023-05-19T02:46:52.378Z,83.8327
2023-05-19T02:47:53.617Z,83.5430
2023-05-19T02:48:55.507Z,83.9409
2023-05-19T02:50:10.007Z,83.6936
2023-05-19T02:50:58.013Z,83.8943
2023-05-19T02:52:00.002Z,84.0680
2023-05-19T02:53:01.324Z,84.1027
2023-05-19T02:54:03.213Z,84.3610
2023-05-19T02:55:05.098Z,84.1629
2023-05-19T02:56:07.194Z,83.3858
2023-05-19T02:57:09.023Z,83.9686
2023-05-19T02:58:10.271Z,84.2052
2023-05-19T02:59:12.246Z,84.1740
2023-05-19T03:00:14.122Z,84.1049
2023-05-19T03:01:16.092Z,84.5288
2023-05-19T03:02:17.311Z,84.2745
2023-05-19T03:03:19.276Z,84.8184
2023-05-19T03:04:21.262Z,84.3066
2023-05-19T03:05:23.407Z,83.9558
2023-05-19T03:07:26.700Z,85.1609
2023-05-19T03:08:28.758Z,86.3063
2023-05-19T03:09:30.031Z,87.0825
2023-05-19T03:10:31.696Z,87.1765
2023-05-19T03:12:34.427Z,84.9417
2023-05-19T03:14:36.981Z,84.7283
2023-05-19T03:15:39.242Z,84.5160
2023-05-19T03:16:40.591Z,84.1327
2023-05-19T03:17:42.037Z,84.8144
2023-05-19T03:18:43.418Z,85.6093
2023-05-19T03:19:44.586Z,84.7445
2023-05-19T03:20:46.333Z,85.3430
2023-05-19T03:21:48.466Z,85.7539
2023-05-19T03:22:49.868Z,85.3315
2023-05-19T03:23:51.091Z,84.9427
2023-05-19T03:24:52.293Z,84.9436
2023-05-19T03:26:55.268Z,84.9210
2023-05-19T03:27:57.682Z,84.8531
2023-05-19T03:28:58.871Z,84.9109
2023-05-19T03:30:00.794Z,84.7934
2023-05-19T03:31:02.901Z,85.0560
2023-05-19T03:32:04.676Z,84.8042
2023-05-19T03:33:06.088Z,85.0539
2023-05-19T03:34:08.086Z,85.2546
2023-05-19T03:35:09.279Z,85.2226
2023-05-19T03:36:10.506Z,85.6351
2023-05-19T03:37:12.297Z,85.3253
2023-05-19T03:38:14.198Z,85.0180
2023-05-19T03:39:15.434Z,85.2565
2023-05-19T03:40:16.633Z,85.2316
2023-05-19T03:41:18.558Z,85.5528
2023-05-19T03:42:20.440Z,84.8216
2023-05-19T03:44:23.354Z,84.8751
2023-05-19T03:45:25.151Z,84.3515
2023-05-19T03:46:27.016Z,84.7489
2023-05-19T03:47:28.495Z,84.6953
2023-05-19T03:48:30.626Z,84.6861
2023-05-19T03:49:32.645Z,84.9338
2023-05-19T03:50:34.125Z,85.4930
2023-05-19T03:51:36.037Z,85.9302
2023-05-19T03:52:37.889Z,86.1679
2023-05-19T03:53:39.124Z,86.2904
2023-05-19T03:55:42.036Z,86.9682
2023-05-19T03:56:43.927Z,87.0289
2023-05-19T03:58:46.799Z,87.3657
2023-05-19T03:59:48.643Z,87.4728
2023-05-19T04:00:49.855Z,86.7439
2023-05-19T04:01:51.776Z,86.6500
2023-05-19T04:02:53.689Z,86.1448
2023-05-19T04:03:55.014Z,86.1318
2023-05-19T04:04:57.004Z,86.4834
2023-05-19T04:05:58.213Z,86.6488
2023-05-19T04:06:59.475Z,86.2986
2023-05-19T04:08:01.409Z,86.2424
2023-05-19T04:09:03.262Z,86.2858
2023-05-19T04:10:04.496Z,86.0929
2023-05-19T04:11:05.846Z,86.5505
2023-05-19T04:12:07.661Z,86.3724
2023-05-19T04:13:08.924Z,86.5799
2023-05-19T04:15:11.212Z,87.9341
2023-05-19T04:16:12.428Z,88.1082
2023-05-19T04:17:13.633Z,88.0318
2023-05-19T04:19:16.329Z,87.7473
2023-05-19T04:20:17.607Z,87.6206
2023-05-19T04:21:19.732Z,86.6994
2023-05-19T04:23:22.727Z,86.8854
2023-05-19T04:24:24.922Z,86.9919
2023-05-19T04:25:26.105Z,87.1894
2023-05-19T04:27:29.065Z,86.6743
2023-05-19T04:28:30.265Z,86.8376
2023-05-19T04:29:31.451Z,87.1357
2023-05-19T04:30:33.432Z,87.7436
2023-05-19T04:31:35.507Z,87.5501
2023-05-19T04:32:37.473Z,87.9756
2023-05-19T04:33:38.869Z,87.8635
2023-05-19T04:34:40.935Z,87.0878
2023-05-19T04:35:42.769Z,86.6640
2023-05-19T04:36:43.980Z,86.5845
2023-05-19T04:37:45.358Z,87.1497
2023-05-19T04:38:47.153Z,86.6244
2023-05-19T04:39:48.411Z,86.2771
2023-05-19T04:40:49.577Z,86.2234
2023-05-19T04:41:50.793Z,85.7533
2023-05-19T04:42:52.042Z,85.3711
2023-05-19T04:43:53.231Z,85.3841
2023-05-19T04:44:55.092Z,85.3009
2023-05-19T04:45:56.912Z,85.3513
2023-05-19T04:46:58.767Z,86.0318
2023-05-19T04:48:00.238Z,85.3185
2023-05-19T04:49:02.403Z,85.9532
2023-05-19T04:50:04.325Z,86.0218
2023-05-19T04:51:06.278Z,85.6957
2023-05-19T04:52:07.500Z,84.9513
2023-05-19T04:53:08.783Z,84.9843
2023-05-19T04:54:10.737Z,85.5084
2023-05-19T04:55:11.926Z,85.5211
2023-05-19T04:56:13.166Z,84.4259
2023-05-19T04:57:15.066Z,83.7813
2023-05-19T04:58:16.262Z,84.4352
2023-05-19T04:59:17.451Z,83.8847
2023-05-19T05:00:18.708Z,83.5135
2023-05-19T05:01:20.576Z,83.1309
2023-05-19T05:02:22.617Z,83.5375
2023-05-19T05:03:24.665Z,83.3206
2023-05-19T05:04:25.917Z,83.2599
2023-05-19T05:05:27.818Z,83.3143
2023-05-19T05:06:29.788Z,83.3348
2023-05-19T05:07:32.232Z,83.2108
2023-05-19T05:13:39.303Z,83.3484
2023-05-19T05:14:40.541Z,83.0904
2023-05-19T05:15:41.778Z,82.1852
2023-05-19T05:16:43.064Z,82.0794
2023-05-19T05:17:44.671Z,81.9455
2023-05-19T05:18:46.489Z,81.0645
2023-05-19T05:19:48.381Z,81.7970
2023-05-19T05:20:49.597Z,81.3558
2023-05-19T05:21:52.336Z,80.8455
2023-05-19T05:24:53.971Z,81.4513
2023-05-19T05:25:55.863Z,81.7094
2023-05-19T05:26:57.133Z,82.1402
2023-05-19T05:27:59.053Z,82.2767
2023-05-19T05:31:02.377Z,82.5269
2023-05-19T05:35:06.844Z,82.9598
2023-05-19T05:36:08.033Z,82.3540
2023-05-19T05:37:09.265Z,83.0341
2023-05-19T05:38:11.416Z,82.9829
2023-05-19T05:39:12.790Z,83.7250
2023-05-19T05:40:14.776Z,83.1022
2023-05-19T05:41:16.055Z,83.1124
2023-05-19T05:42:17.383Z,83.5771
2023-05-19T05:43:18.623Z,83.5047
2023-05-19T05:44:19.866Z,83.5028
2023-05-19T05:45:21.145Z,83.8854
2023-05-19T05:46:22.503Z,83.6335
2023-05-19T05:47:23.745Z,83.5367
2023-05-19T05:48:25.007Z,83.6423
2023-05-19T05:49:26.251Z,83.2837
2023-05-19T05:50:29.086Z,83.6252
2023-05-19T05:51:30.343Z,83.3001
2023-05-19T05:52:32.167Z,83.7130
2023-05-19T05:53:33.437Z,83.8177
2023-05-19T05:54:34.695Z,83.8082
2023-05-19T05:55:36.531Z,83.4868
2023-05-19T05:56:37.808Z,82.7709
2023-05-19T05:57:39.080Z,83.2162
2023-05-19T05:58:40.967Z,83.2416
2023-05-19T05:59:42.833Z,83.4041
2023-05-19T06:00:44.735Z,83.5488
2023-05-19T06:01:46.848Z,83.2009
2023-05-19T06:02:48.904Z,83.4097
2023-05-19T06:03:50.238Z,83.5936
2023-05-19T06:05:53.621Z,83.5599
2023-05-19T06:06:54.919Z,83.3437
2023-05-19T06:07:56.198Z,82.8186
2023-05-19T06:08:57.506Z,82.6359
2023-05-19T06:10:00.012Z,82.8610
2023-05-19T06:11:01.271Z,82.8168
2023-05-19T06:13:04.755Z,83.1576
2023-05-19T06:14:06.668Z,83.3776
2023-05-19T06:15:07.933Z,83.4150
2023-05-19T06:16:10.396Z,83.2540
2023-05-19T06:17:12.754Z,83.4800
2023-05-19T06:18:14.087Z,83.4929
2023-05-19T06:19:15.401Z,83.8212
2023-05-19T06:21:18.295Z,83.4457
2023-05-19T06:22:19.535Z,83.4323
2023-05-19T06:24:21.861Z,83.4730
2023-05-19T06:25:23.148Z,83.2945
2023-05-19T06:26:24.454Z,83.2049
2023-05-19T06:27:25.691Z,83.9711
2023-05-19T06:28:28.125Z,83.6404
2023-05-19T06:29:29.399Z,83.8861
2023-05-19T06:30:31.586Z,84.2485
2023-05-19T06:31:34.022Z,84.1341
2023-05-19T06:32:35.880Z,83.9511
2023-05-19T06:33:37.162Z,83.2764
2023-05-19T06:34:39.091Z,83.7204
2023-05-19T06:35:41.038Z,84.1486
2023-05-19T06:36:42.420Z,84.2520
2023-05-19T06:37:45.331Z,83.7503
2023-05-19T06:45:52.851Z,83.7759
2023-05-19T06:46:54.146Z,83.4216
2023-05-19T06:47:55.539Z,83.8277
2023-05-19T06:50:59.768Z,83.6878
2023-05-19T06:53:03.579Z,83.3370
2023-05-19T06:54:04.950Z,83.5978
2023-05-19T06:55:06.519Z,83.9089
2023-05-19T06:56:07.869Z,84.4468
2023-05-19T06:57:33.224Z,84.4158
2023-05-19T07:01:14.600Z,83.4172
2023-05-19T07:02:16.648Z,83.1981
2023-05-19T07:03:19.126Z,83.0696
2023-05-19T07:04:20.448Z,82.8667
2023-05-19T07:05:21.682Z,83.1574
2023-05-19T07:06:23.698Z,83.0214
2023-05-19T07:07:25.513Z,82.9591
2023-05-19T07:08:26.821Z,82.9926
2023-05-19T07:09:28.100Z,83.0027
2023-05-19T07:10:30.075Z,82.6135
2023-05-19T07:11:31.373Z,82.0971
2023-05-19T07:12:33.679Z,81.8883
2023-05-19T07:13:34.945Z,81.8235
2023-05-19T07:14:36.957Z,82.2327
2023-05-19T07:15:38.191Z,81.9964
2023-05-19T07:16:39.429Z,81.6519
2023-05-19T07:18:42.648Z,81.9213
2023-05-19T07:19:44.709Z,81.7954
2023-05-19T07:20:46.015Z,82.2179
2023-05-19T07:22:49.026Z,81.7696
2023-05-19T07:23:51.001Z,81.4176
2023-05-19T07:24:52.280Z,81.1367
2023-05-19T07:25:54.269Z,81.1598
2023-05-19T07:26:56.906Z,81.6310
2023-05-19T07:27:59.243Z,81.0854
2023-05-19T07:29:12.214Z,81.3816
2023-05-19T07:30:02.199Z,80.8933
2023-05-19T07:31:03.440Z,80.2944
2023-05-19T07:32:04.737Z,80.6491
2023-05-19T07:33:06.089Z,80.0110
2023-05-19T07:34:07.353Z,79.9678
2023-05-19T07:35:08.622Z,80.3912
2023-05-19T07:36:09.876Z,80.6883
2023-05-19T07:37:11.150Z,81.1164
2023-05-19T07:38:12.472Z,81.6707
2023-05-19T07:43:18.227Z,79.8341
2023-05-19T07:44:19.525Z,80.0694
2023-05-19T07:46:21.943Z,79.0119
2023-05-19T07:47:23.768Z,79.7686
2023-05-19T07:49:26.741Z,78.9405
2023-05-19T07:50:28.808Z,78.3309
2023-05-19T07:51:30.725Z,77.2058
2023-05-19T07:52:31.986Z,77.8811
2023-05-19T07:53:34.001Z,78.5070
2023-05-19T07:54:35.353Z,77.9262
2023-05-19T07:55:36.605Z,77.4142
2023-05-19T07:56:37.872Z,77.8101
2023-05-19T07:57:39.822Z,77.9369
2023-05-19T07:58:41.761Z,78.0213
2023-05-19T07:59:42.993Z,77.7604
2023-05-19T08:00:45.208Z,77.6962
2023-05-19T08:01:47.047Z,78.0459
2023-05-19T08:02:49.451Z,77.8536
2023-05-19T08:04:52.951Z,77.5120
2023-05-19T08:05:54.936Z,78.2467
2023-05-19T08:06:56.220Z,78.8260
2023-05-19T08:07:57.504Z,79.1786
2023-05-19T08:08:59.334Z,79.2878
2023-05-19T08:10:00.605Z,79.9211
2023-05-19T08:11:01.943Z,79.6867
2023-05-19T08:12:03.230Z,80.0313
2023-05-19T08:13:07.040Z,79.6932
2023-05-19T08:16:09.281Z,80.9599
2023-05-19T08:17:11.121Z,79.2477
2023-05-19T08:18:13.021Z,79.5971
2023-05-19T08:19:14.367Z,79.4331
2023-05-19T08:20:16.285Z,78.7090
2023-05-19T08:21:18.400Z,77.9440
2023-05-19T08:22:20.325Z,78.5951
2023-05-19T08:23:22.250Z,78.6158
2023-05-19T08:24:25.313Z,78.7716
2023-05-19T08:25:24.462Z,78.4920
2023-05-19T08:26:26.324Z,79.7957
2023-05-19T08:27:31.079Z,78.6723
2023-05-19T08:40:43.462Z,79.5110
2023-05-19T08:41:44.805Z,79.1567
2023-05-19T08:45:01.321Z,78.3305
2023-05-19T08:45:48.796Z,78.9984
2023-05-19T08:46:50.129Z,79.7819
2023-05-19T08:47:51.505Z,78.7229
2023-05-19T08:48:52.830Z,78.8373
2023-05-19T08:49:54.132Z,78.4637
2023-05-19T08:50:55.413Z,77.0850
2023-05-19T08:51:56.695Z,76.9345
2023-05-19T08:52:57.995Z,76.8150
2023-05-19T08:53:59.207Z,76.9962
2023-05-19T08:55:00.490Z,77.0339
2023-05-19T08:56:01.770Z,76.9318
2023-05-19T08:57:03.152Z,74.7223
2023-05-19T08:58:04.454Z,74.1925
2023-05-19T08:59:05.735Z,75.0822
2023-05-19T09:00:07.044Z,75.8890
2023-05-19T09:01:08.390Z,74.5309
2023-05-19T09:02:09.629Z,76.1400
2023-05-19T09:03:18.105Z,74.6421
2023-05-19T09:04:12.921Z,74.1100
2023-05-19T09:05:14.284Z,75.7901
2023-05-19T09:06:15.582Z,76.7500
2023-05-19T09:07:16.911Z,76.7544
2023-05-19T09:08:18.253Z,76.2464
2023-05-19T09:09:19.796Z,77.8003
2023-05-19T09:10:21.134Z,77.0319
2023-05-19T09:11:22.584Z,75.0108
2023-05-19T09:12:23.962Z,76.6149
2023-05-19T09:14:26.494Z,76.9079
2023-05-19T09:15:27.778Z,77.8690
2023-05-19T09:16:30.184Z,76.9659
2023-05-19T09:17:31.759Z,76.5685
2023-05-19T09:18:33.106Z,76.3186
2023-05-19T09:19:34.493Z,76.0198
2023-05-19T09:20:35.835Z,77.1267
2023-05-19T09:21:37.140Z,76.8754
2023-05-19T09:22:38.454Z,76.7117
2023-05-19T09:23:39.779Z,77.2228
2023-05-19T09:25:42.211Z,78.4747
2023-05-19T09:26:43.513Z,79.0594
2023-05-19T09:27:44.805Z,78.9383
2023-05-19T09:28:46.132Z,78.3988
2023-05-19T09:29:47.423Z,78.1725
2023-05-19T09:30:48.697Z,79.0060
2023-05-19T09:31:50.033Z,78.4208
2023-05-19T09:43:02.731Z,76.3810
2023-05-19T09:44:03.973Z,74.9024
2023-05-19T09:45:05.254Z,74.9535
2023-05-19T09:46:06.782Z,74.9364
2023-05-19T09:47:08.478Z,75.2080
2023-05-19T09:48:09.712Z,75.3656
2023-05-19T09:49:11.030Z,76.0883
2023-05-19T09:50:12.272Z,75.3335
2023-05-19T09:51:13.510Z,75.1335
2023-05-19T09:52:14.777Z,74.3381
2023-05-19T09:53:16.525Z,73.8508
2023-05-19T09:54:17.809Z,73.8015
2023-05-19T09:55:19.091Z,74.8504
2023-05-19T09:56:20.377Z,74.7058
2023-05-19T09:57:21.751Z,74.7659
2023-05-19T09:58:23.037Z,74.6398
2023-05-19T09:59:24.366Z,73.6692
2023-05-19T10:00:25.657Z,73.7962
2023-05-19T10:01:26.990Z,72.5730
2023-05-19T10:02:28.512Z,73.5485
2023-05-19T10:03:29.878Z,73.9908
2023-05-19T10:04:31.465Z,75.4174
2023-05-19T10:05:32.957Z,75.0779
2023-05-19T10:06:34.511Z,74.7760
2023-05-19T10:07:35.753Z,72.4629
2023-05-19T10:08:37.047Z,73.2207
2023-05-19T10:09:38.298Z,72.3588
2023-05-19T10:10:39.657Z,71.2789
2023-05-19T10:11:40.909Z,71.4596
2023-05-19T10:12:42.230Z,71.4519
2023-05-19T10:14:45.045Z,72.3911
2023-05-19T10:15:57.067Z,73.2603
2023-05-19T10:16:48.029Z,72.8330
2023-05-19T10:17:49.475Z,72.9824
2023-05-19T10:18:50.840Z,71.5083
2023-05-19T10:19:52.128Z,72.4209
2023-05-19T10:20:53.537Z,73.1038
2023-05-19T10:21:54.870Z,73.2536
2023-05-19T10:22:56.225Z,74.5958
2023-05-19T10:23:57.519Z,73.9233
2023-05-19T10:28:02.261Z,74.2498
2023-05-19T10:48:25.660Z,71.2133
2023-05-19T10:49:26.965Z,71.2382
2023-05-19T10:50:28.372Z,72.7417
2023-05-19T10:51:29.690Z,73.5545
2023-05-19T10:52:31.014Z,73.7035
2023-05-19T10:54:33.604Z,72.2807
2023-05-19T10:55:35.083Z,73.5379
2023-05-19T10:56:36.781Z,72.0158
2023-05-19T10:57:38.182Z,70.9841
2023-05-19T10:58:39.504Z,70.3918
2023-05-19T10:59:40.889Z,71.0704
2023-05-19T11:00:42.223Z,70.8198
2023-05-19T11:01:43.762Z,69.6719
2023-05-19T11:02:45.091Z,70.7783
2023-05-19T11:03:46.455Z,69.6746
2023-05-19T11:04:50.239Z,72.0201
2023-05-19T11:05:50.336Z,70.3430
2023-05-19T11:06:51.801Z,71.0076
2023-05-19T11:07:53.198Z,72.0448
2023-05-19T11:08:54.535Z,72.7162
2023-05-19T11:09:55.836Z,73.6764
2023-05-19T11:10:57.224Z,71.9353
2023-05-19T11:11:58.528Z,72.4687
2023-05-19T11:12:59.933Z,71.8409
2023-05-19T11:15:02.367Z,73.0801
2023-05-19T11:16:03.753Z,73.0173
2023-05-19T11:17:05.155Z,71.2239
2023-05-19T11:18:06.550Z,71.6813
2023-05-19T11:19:08.017Z,71.3087
2023-05-19T11:20:09.373Z,72.4442
2023-05-19T11:21:10.702Z,72.4303
2023-05-19T11:22:12.027Z,68.2406
2023-05-19T11:23:13.383Z,70.0513
2023-05-19T11:24:14.635Z,68.9090
2023-05-19T11:25:15.957Z,71.2689
2023-05-19T11:26:17.256Z,70.1153
2023-05-19T11:27:18.573Z,71.4196
2023-05-19T11:28:20.139Z,71.1282
2023-05-19T11:29:21.532Z,72.0544
2023-05-19T11:30:22.831Z,72.8601
2023-05-19T11:31:24.147Z,72.9251
2023-05-19T11:32:25.522Z,72.8835
2023-05-19T11:33:26.835Z,72.8296
2023-05-19T11:34:28.155Z,72.9043
2023-05-19T11:36:30.667Z,71.1035
2023-05-19T11:37:31.956Z,70.5003
2023-05-19T11:38:33.263Z,70.2683
2023-05-19T11:39:34.596Z,68.7941
2023-05-19T11:40:35.898Z,68.8410
2023-05-19T11:41:37.277Z,70.1370
2023-05-19T11:42:38.580Z,67.4267
2023-05-19T11:43:39.912Z,65.7158
2023-05-19T11:44:41.300Z,65.1908
2023-05-19T11:46:43.877Z,67.3988
2023-05-19T11:48:00.284Z,66.8935
2023-05-19T11:48:46.966Z,66.9665
2023-05-19T11:50:14.740Z,67.4172
2023-05-19T11:51:16.125Z,68.4868
2023-05-19T11:52:17.519Z,68.0473
2023-05-19T11:53:18.995Z,67.0760
2023-05-19T11:54:20.557Z,66.9352
2023-05-19T11:55:21.956Z,65.0377
2023-05-19T11:56:23.355Z,65.9051
2023-05-19T11:57:24.726Z,66.1339
2023-05-19T11:58:26.072Z,65.9120
2023-05-19T11:59:27.480Z,66.3033
2023-05-19T12:00:28.916Z,66.2648
2023-05-19T12:01:30.285Z,64.8661
2023-05-19T12:02:31.874Z,64.1796
2023-05-19T12:03:33.407Z,64.2703
2023-05-19T12:04:34.864Z,65.4502
2023-05-19T12:05:39.915Z,62.9636
2023-05-19T12:06:38.125Z,64.3230
2023-05-19T12:07:39.636Z,64.4015
2023-05-19T12:08:40.983Z,65.2186
2023-05-19T12:09:42.387Z,64.5944
2023-05-19T12:10:43.802Z,65.4343
2023-05-19T12:11:45.150Z,66.5961
2023-05-19T12:12:46.557Z,66.1343
2023-05-19T12:15:50.453Z,66.9502
2023-05-19T12:16:52.042Z,66.6115
2023-05-19T12:17:53.551Z,66.8481
2023-05-19T12:18:54.951Z,66.6275
2023-05-19T12:19:56.376Z,66.0013
2023-05-19T12:20:58.032Z,66.5884
2023-05-19T12:21:59.444Z,67.7291
2023-05-19T12:23:01.036Z,66.8581
2023-05-19T12:24:02.678Z,65.6531
2023-05-19T12:26:05.281Z,66.7880
2023-05-19T12:27:06.720Z,65.5628
2023-05-19T12:28:08.190Z,65.3221
2023-05-19T12:29:09.704Z,65.9070
2023-05-19T12:30:11.284Z,66.7713
2023-05-19T12:31:12.750Z,64.4037
2023-05-19T12:32:14.146Z,64.6822
2023-05-19T12:33:15.637Z,64.6299
2023-05-19T12:34:17.035Z,65.6357
2023-05-19T12:35:18.553Z,64.5944
2023-05-19T12:37:21.221Z,64.9660
2023-05-19T12:55:43.824Z,68.5717
2023-05-19T12:56:45.186Z,66.8550
2023-05-19T12:57:47.982Z,68.6053
2023-05-19T12:58:47.276Z,68.2810
2023-05-19T12:59:48.601Z,67.8959
2023-05-19T13:00:50.180Z,67.9036
2023-05-19T13:01:51.765Z,66.7909
2023-05-19T13:03:54.478Z,67.1463
2023-05-19T13:04:56.115Z,66.6069
2023-05-19T13:05:57.485Z,66.8222
2023-05-19T13:06:58.958Z,66.0320
2023-05-19T13:08:00.362Z,65.9577
2023-05-19T13:09:01.695Z,65.1254
2023-05-19T13:10:03.081Z,66.0120
2023-05-19T13:11:04.440Z,64.7577
2023-05-19T13:12:05.847Z,65.4441
2023-05-19T13:14:08.374Z,66.6819
2023-05-19T13:15:09.833Z,67.6703
2023-05-19T13:16:11.273Z,68.4934
2023-05-19T13:19:24.986Z,70.1807
2023-05-19T13:20:17.170Z,71.0123
2023-05-19T13:21:18.521Z,71.6700
2023-05-19T13:22:19.853Z,72.2287
2023-05-19T13:23:21.258Z,71.8674
2023-05-19T13:24:22.642Z,71.1388
2023-05-19T13:25:24.026Z,71.9131
2023-05-19T13:26:25.425Z,70.7562
2023-05-19T13:27:26.806Z,69.3602
2023-05-19T13:28:28.221Z,69.7197
2023-05-19T13:29:29.604Z,70.0381
2023-05-19T13:30:31.050Z,69.0473
2023-05-19T13:31:32.635Z,69.0605
2023-05-19T13:32:34.070Z,68.9475
2023-05-19T13:33:35.573Z,69.7673
2023-05-19T13:35:38.432Z,70.9497
2023-05-19T13:36:40.045Z,70.3737
2023-05-19T13:37:41.455Z,70.9840
2023-05-19T13:38:43.006Z,72.1773
2023-05-19T13:39:44.314Z,71.6698
2023-05-19T13:40:45.724Z,70.9963
2023-05-19T13:41:47.189Z,71.0071
2023-05-19T13:42:48.617Z,71.3941
2023-05-19T13:43:49.972Z,71.8293
2023-05-19T13:44:51.529Z,70.8688
2023-05-19T13:45:52.936Z,69.6883
2023-05-19T13:47:55.685Z,71.0624
2023-05-19T13:48:57.046Z,70.4439
2023-05-19T13:49:58.478Z,70.8257
2023-05-19T13:50:59.891Z,69.6748
2023-05-19T13:52:02.167Z,69.5206
2023-05-19T13:53:03.542Z,68.8064
2023-05-19T13:54:05.301Z,70.0417
2023-05-19T13:55:06.695Z,69.4730
2023-05-19T13:56:08.255Z,68.9653
2023-05-19T13:57:09.606Z,69.4576
2023-05-19T13:58:11.048Z,70.3230
2023-05-19T13:59:12.581Z,69.5553
2023-05-19T14:01:15.245Z,71.0015
2023-05-19T14:02:16.676Z,70.9016
2023-05-19T14:03:18.126Z,71.2022
2023-05-19T14:04:19.697Z,71.0046
2023-05-19T14:05:21.522Z,72.0811
2023-05-19T14:06:22.894Z,71.6752
2023-05-19T14:07:24.217Z,72.0482
2023-05-19T14:08:25.650Z,71.8764
2023-05-19T14:09:28.080Z,72.0168
2023-05-19T14:10:27.875Z,72.1540
2023-05-19T14:11:29.219Z,73.1028
2023-05-19T14:12:38.159Z,73.5354
2023-05-19T14:13:36.123Z,74.2336
2023-05-19T14:14:34.543Z,72.5807
2023-05-19T14:15:35.978Z,74.0315
2023-05-19T14:16:38.286Z,72.7383
2023-05-19T14:17:39.889Z,74.7571
2023-05-19T14:18:41.344Z,73.6668
2023-05-19T14:19:42.783Z,73.6029
2023-05-19T14:21:45.381Z,72.6488
2023-05-19T14:22:46.793Z,71.8497
2023-05-19T14:23:48.166Z,72.3372
2023-05-19T14:24:49.491Z,71.1603
2023-05-19T14:25:50.868Z,71.8767
2023-05-19T14:26:52.227Z,70.7480
2023-05-19T14:27:53.655Z,71.6573
2023-05-19T14:28:55.003Z,72.5449
2023-05-19T14:29:56.703Z,74.5852
2023-05-19T14:31:59.865Z,72.9508
2023-05-19T14:33:01.364Z,73.2117
2023-05-19T14:34:02.807Z,72.6535
2023-05-19T14:35:04.178Z,71.2628
2023-05-19T14:36:05.604Z,71.1160
2023-05-19T14:37:06.993Z,71.3522
2023-05-19T14:38:08.384Z,71.7132
2023-05-19T14:39:09.759Z,72.0610
2023-05-19T14:41:12.383Z,71.9123
2023-05-19T14:42:13.789Z,71.3802
2023-05-19T14:43:15.240Z,70.6487
2023-05-19T14:44:16.550Z,70.2847
2023-05-19T14:45:18.897Z,71.3879
2023-05-19T14:46:20.372Z,71.4056
2023-05-19T14:47:21.762Z,71.2971
2023-05-19T14:48:23.162Z,71.0032
2023-05-19T14:49:24.593Z,71.5049
2023-05-19T14:50:27.849Z,70.5301
2023-05-19T14:51:27.776Z,70.3493
2023-05-19T14:52:29.204Z,71.0221
2023-05-19T14:53:30.669Z,70.5459
2023-05-19T14:54:32.053Z,69.8561
2023-05-19T14:55:33.463Z,70.3769
2023-05-19T14:56:34.906Z,69.9889
2023-05-19T14:57:36.353Z,70.6369
2023-05-19T14:58:37.794Z,70.8021
2023-05-19T14:59:39.177Z,70.8262
2023-05-19T15:00:40.630Z,70.1706
2023-05-19T15:01:42.037Z,70.9744
2023-05-19T15:02:43.532Z,70.9025
2023-05-19T15:03:44.990Z,71.2521
2023-05-19T15:06:58.234Z,70.3887
2023-05-19T15:07:50.802Z,70.0614
2023-05-19T15:08:52.204Z,69.9425
2023-05-19T15:09:53.635Z,70.3159
2023-05-19T15:10:55.053Z,71.4030
2023-05-19T15:11:56.411Z,70.2285
2023-05-19T15:12:58.091Z,69.6987
2023-05-19T15:16:12.365Z,70.4822
2023-05-19T15:17:03.617Z,71.5451
2023-05-19T15:18:05.287Z,72.4726
2023-05-19T15:19:06.697Z,71.9672
2023-05-19T15:20:08.140Z,70.9793
2023-05-19T15:21:09.586Z,72.0954